createdAt,value
2023-05-08T00:00:00.909Z,0
2023-05-08T00:05:00.550Z,0
2023-05-08T00:10:01.701Z,0
2023-05-08T00:15:01.021Z,0
2023-05-08T00:20:01.415Z,0
2023-05-08T00:25:00.752Z,0
2023-05-08T00:30:00.599Z,0
2023-05-08T00:35:01.051Z,0
2023-05-08T00:40:01.957Z,0
2023-05-08T00:45:00.569Z,0
2023-05-08T00:50:01.039Z,0
2023-05-08T00:55:00.877Z,0
2023-05-08T01:00:00.792Z,0
2023-05-08T01:05:02.886Z,0
2023-05-08T01:10:00.744Z,0
2023-05-08T01:15:02.020Z,0
2023-05-08T01:20:00.734Z,0
2023-05-08T01:25:01.085Z,0
2023-05-08T01:30:01.299Z,0
2023-05-08T01:35:00.847Z,0
2023-05-08T01:40:01.426Z,0
2023-05-08T01:45:00.719Z,0
2023-05-08T01:50:00.845Z,0
2023-05-08T01:55:00.822Z,0
2023-05-08T02:00:00.768Z,0
2023-05-08T02:05:00.853Z,0
2023-05-08T02:10:00.817Z,0
2023-05-08T02:15:00.659Z,0
2023-05-08T02:20:00.512Z,0
2023-05-08T02:25:02.005Z,0
2023-05-08T02:30:00.529Z,0
2023-05-08T02:35:06.104Z,0
2023-05-08T02:40:00.552Z,0
2023-05-08T02:45:00.660Z,0
2023-05-08T02:50:01.663Z,0
2023-05-08T02:55:00.918Z,0
2023-05-08T03:00:00.662Z,0
2023-05-08T03:05:01.524Z,0
2023-05-08T03:10:00.518Z,0
2023-05-08T03:15:00.809Z,0
2023-05-08T03:20:02.018Z,0
2023-05-08T03:25:00.691Z,0
2023-05-08T03:30:00.887Z,0
2023-05-08T03:35:02.588Z,0
2023-05-08T03:40:00.516Z,0
2023-05-08T03:45:02.469Z,0
2023-05-08T03:50:00.521Z,0
2023-05-08T03:55:00.598Z,0
2023-05-08T04:00:01.948Z,0
2023-05-08T04:05:00.831Z,0
2023-05-08T04:10:00.750Z,0
2023-05-08T04:15:01.315Z,0
2023-05-08T04:20:02.349Z,0
2023-05-08T04:25:00.549Z,0
2023-05-08T04:30:01.800Z,0
2023-05-08T04:35:00.526Z,0
2023-05-08T04:40:01.174Z,0
2023-05-08T04:45:00.845Z,0
2023-05-08T04:50:02.563Z,0
2023-05-08T04:55:00.842Z,0
2023-05-08T05:00:01.076Z,0
2023-05-08T05:05:01.068Z,0
2023-05-08T05:10:00.722Z,0
2023-05-08T05:15:00.719Z,0
2023-05-08T05:20:01.212Z,0
2023-05-08T05:25:01.509Z,0
2023-05-08T05:30:02.269Z,0
2023-05-08T05:35:00.946Z,0
2023-05-08T05:40:01.190Z,0
2023-05-08T05:45:01.456Z,0
2023-05-08T05:50:00.825Z,0
2023-05-08T05:55:01.039Z,0
2023-05-08T06:00:00.880Z,0
2023-05-08T06:05:01.109Z,0
2023-05-08T06:10:00.964Z,0
2023-05-08T06:15:00.847Z,0
2023-05-08T06:20:02.376Z,0
2023-05-08T06:25:01.174Z,0
2023-05-08T06:30:00.834Z,0
2023-05-08T06:35:01.471Z,0
2023-05-08T06:40:11.470Z,0
2023-05-08T06:45:01.079Z,0
2023-05-08T06:50:00.681Z,0
2023-05-08T06:55:00.742Z,0
2023-05-08T07:00:00.882Z,0
2023-05-08T07:05:01.343Z,0
2023-05-08T07:10:00.840Z,0
2023-05-08T07:15:13.789Z,0
2023-05-08T07:20:00.490Z,0
2023-05-08T07:25:02.095Z,0
2023-05-08T07:30:00.983Z,0
2023-05-08T07:35:01.112Z,0
2023-05-08T07:40:01.553Z,0
2023-05-08T07:45:01.450Z,0
2023-05-08T07:50:00.628Z,0
2023-05-08T07:55:00.557Z,0
2023-05-08T08:00:00.855Z,0
2023-05-08T08:05:00.934Z,0
2023-05-08T08:10:00.940Z,0
2023-05-08T08:15:01.769Z,0
2023-05-08T08:20:01.467Z,0
2023-05-08T08:25:00.581Z,0
2023-05-08T08:30:16.261Z,0
2023-05-08T08:35:00.865Z,0
2023-05-08T08:40:00.958Z,0
2023-05-08T08:45:01.290Z,0
2023-05-08T08:50:01.479Z,0
2023-05-08T08:55:00.903Z,0
2023-05-08T09:00:02.236Z,0
2023-05-08T09:05:01.051Z,0
2023-05-08T09:10:00.878Z,0
2023-05-08T09:15:01.925Z,0
2023-05-08T09:20:01.220Z,0
2023-05-08T09:25:00.935Z,0
2023-05-08T09:30:00.877Z,0
2023-05-08T09:35:00.538Z,0
2023-05-08T09:40:00.745Z,0
2023-05-08T09:45:00.542Z,0
2023-05-08T09:50:01.959Z,0
2023-05-08T09:55:00.935Z,0
2023-05-08T10:00:00.766Z,0
2023-05-08T10:05:01.234Z,0
2023-05-08T10:10:00.826Z,0
2023-05-08T10:15:00.685Z,0
2023-05-08T10:20:01.343Z,0
2023-05-08T10:25:00.865Z,0
2023-05-08T10:30:00.881Z,0
2023-05-08T10:35:00.875Z,0
2023-05-08T10:40:01.661Z,0
2023-05-08T10:45:01.351Z,0
2023-05-08T10:50:00.967Z,0
2023-05-08T10:55:01.320Z,0
2023-05-08T11:00:00.549Z,0
2023-05-08T11:05:00.602Z,0
2023-05-08T11:10:00.568Z,0
2023-05-08T11:15:01.136Z,3
2023-05-08T11:20:01.658Z,4
2023-05-08T11:25:00.987Z,3
2023-05-08T11:30:00.723Z,2
2023-05-08T11:35:00.525Z,5
2023-05-08T11:40:01.021Z,8
2023-05-08T11:45:00.530Z,11
2023-05-08T11:50:01.028Z,12
2023-05-08T11:55:01.180Z,16
2023-05-08T12:00:01.240Z,14
2023-05-08T12:05:00.891Z,8
2023-05-08T12:10:01.000Z,2
2023-05-08T12:15:03.237Z,0
2023-05-08T12:20:01.154Z,0
2023-05-08T12:25:00.711Z,0
2023-05-08T12:30:00.831Z,0
2023-05-08T12:35:02.348Z,0
2023-05-08T12:40:00.603Z,0
2023-05-08T12:45:01.182Z,0
2023-05-08T12:50:01.169Z,0
2023-05-08T12:55:00.876Z,0
2023-05-08T13:00:03.575Z,0
2023-05-08T13:05:00.780Z,0
2023-05-08T13:10:01.025Z,0
2023-05-08T13:15:00.727Z,0
2023-05-08T13:20:01.171Z,0
2023-05-08T13:25:01.784Z,0
2023-05-08T13:30:00.800Z,0
2023-05-08T13:35:01.300Z,0
2023-05-08T13:40:01.069Z,0
2023-05-08T13:45:00.720Z,0
2023-05-08T13:50:00.846Z,0
2023-05-08T13:55:00.786Z,0
2023-05-08T14:00:01.111Z,0
2023-05-08T14:05:00.839Z,0
2023-05-08T14:10:00.642Z,0
2023-05-08T14:15:01.032Z,0
2023-05-08T14:20:00.984Z,0
2023-05-08T14:25:00.548Z,0
2023-05-08T14:30:00.756Z,0
2023-05-08T14:35:01.081Z,0
2023-05-08T14:40:01.077Z,0
2023-05-08T14:45:01.550Z,0
2023-05-08T14:50:00.653Z,0
2023-05-08T14:55:01.265Z,0
2023-05-08T15:00:00.786Z,0
2023-05-08T15:05:00.566Z,0
2023-05-08T15:10:00.882Z,0
2023-05-08T15:15:02.732Z,0
2023-05-08T15:20:01.134Z,1
2023-05-08T15:25:00.879Z,3
2023-05-08T15:30:00.642Z,3
2023-05-08T15:35:01.494Z,3
2023-05-08T15:40:00.923Z,8
2023-05-08T15:45:00.527Z,11
2023-05-08T15:50:00.854Z,7
2023-05-08T15:55:00.610Z,2
2023-05-08T16:00:00.641Z,0
2023-05-08T16:05:00.535Z,0
2023-05-08T16:10:00.865Z,0
2023-05-08T16:15:00.574Z,0
2023-05-08T16:20:00.953Z,0
2023-05-08T16:25:00.792Z,0
2023-05-08T16:30:00.654Z,0
2023-05-08T16:35:00.781Z,0
2023-05-08T16:40:00.738Z,0
2023-05-08T16:45:00.622Z,0
2023-05-08T16:50:00.636Z,0
2023-05-08T16:55:01.695Z,0
2023-05-08T17:00:01.187Z,0
2023-05-08T17:05:00.675Z,0
2023-05-08T17:10:00.568Z,0
2023-05-08T17:15:00.927Z,0
2023-05-08T17:20:00.703Z,0
2023-05-08T17:25:00.509Z,0
2023-05-08T17:30:00.613Z,0
2023-05-08T17:35:00.547Z,0
2023-05-08T17:40:00.851Z,0
2023-05-08T17:45:00.856Z,0
2023-05-08T17:50:00.714Z,0
2023-05-08T17:55:00.824Z,0
2023-05-08T18:00:00.902Z,0
2023-05-08T18:05:00.526Z,0
2023-05-08T18:10:01.088Z,0
2023-05-08T18:15:00.994Z,0
2023-05-08T18:20:00.802Z,0
2023-05-08T18:25:00.903Z,0
2023-05-08T18:30:02.031Z,0
2023-05-08T18:35:00.988Z,0
2023-05-08T18:40:02.067Z,0
2023-05-08T18:45:00.733Z,1
2023-05-08T18:50:01.395Z,3
2023-05-08T18:55:00.594Z,3
2023-05-08T19:00:00.709Z,0
2023-05-08T19:05:01.056Z,0
2023-05-08T19:10:00.523Z,1
2023-05-08T19:15:00.559Z,1
2023-05-08T19:20:00.722Z,0
2023-05-08T19:25:00.528Z,0
2023-05-08T19:30:00.780Z,2
2023-05-08T19:35:00.976Z,2
2023-05-08T19:40:01.736Z,0
2023-05-08T19:45:00.822Z,0
2023-05-08T19:50:01.116Z,0
2023-05-08T19:55:00.492Z,0
2023-05-08T20:00:01.290Z,0
2023-05-08T20:10:00.512Z,0
2023-05-08T20:15:00.747Z,0
2023-05-08T20:20:01.325Z,0
2023-05-08T20:25:03.562Z,0
2023-05-08T20:30:01.614Z,0
2023-05-08T20:35:00.800Z,0
2023-05-08T20:40:00.849Z,0
2023-05-08T20:45:01.138Z,0
2023-05-08T20:50:00.603Z,0
2023-05-08T20:55:01.566Z,0
2023-05-08T21:00:00.807Z,0
2023-05-08T21:05:00.942Z,0
2023-05-08T21:10:01.066Z,0
2023-05-08T21:15:00.652Z,0
2023-05-08T21:20:01.437Z,0
2023-05-08T21:25:01.153Z,0
2023-05-08T21:30:00.656Z,0
2023-05-08T21:35:01.117Z,0
2023-05-08T21:40:00.755Z,0
2023-05-08T21:45:01.401Z,0
2023-05-08T21:50:01.036Z,0
2023-05-08T21:55:01.068Z,0
2023-05-08T22:00:00.636Z,0
2023-05-08T22:05:00.784Z,0
2023-05-08T22:10:01.233Z,0
2023-05-08T22:15:01.167Z,0
2023-05-08T22:20:00.502Z,0
2023-05-08T22:25:00.865Z,0
2023-05-08T22:30:01.373Z,0
2023-05-08T22:35:00.682Z,0
2023-05-08T22:40:01.270Z,0
2023-05-08T22:45:01.210Z,0
2023-05-08T22:50:00.917Z,0
2023-05-08T22:55:00.882Z,0
2023-05-08T23:00:01.125Z,0
2023-05-08T23:05:01.103Z,0
2023-05-08T23:10:02.686Z,0
2023-05-08T23:15:00.567Z,0
2023-05-08T23:20:00.611Z,0
2023-05-08T23:25:00.767Z,0
2023-05-08T23:30:01.787Z,0
2023-05-08T23:35:00.688Z,0
2023-05-08T23:40:02.442Z,0
2023-05-08T23:45:00.513Z,0
2023-05-08T23:50:00.871Z,0
2023-05-08T23:55:01.741Z,0
